Time;durP1;ratioP1;P1;durP2;ratioP2;P2;SDS_P1;SDS_P2;PMS_P1;PMS_P2;Temp;Humidity;BMP_temperature;BMP_pressure;BME280_temperature;BME280_humidity;BME280_pressure;Samples;Min_cycle;Max_cycle;Signal;HPM_P1;HPM_P2
2021/10/11 00:01:11;;;;;;;1.15;0.90;;;;;;;9.12;89.58;93700.06;5113524;28;20031;-47
2021/10/11 00:03:36;;;;;;;2.53;0.90;;;;;;;9.10;89.20;93699.84;5113397;27;20409;-48
2021/10/11 00:06:02;;;;;;;0.80;0.80;;;;;;;9.11;88.90;93693.81;5113406;28;20515;-49
2021/10/11 00:08:27;;;;;;;0.82;0.82;;;;;;;9.10;89.25;93689.56;5113254;27;20024;-49
2021/10/11 00:10:53;;;;;;;3.10;0.75;;;;;;;9.08;89.34;93694.88;5113050;28;20510;-48
2021/10/11 00:13:21;;;;;;;1.17;0.75;;;;;;;9.05;89.15;93692.47;5112967;28;20031;-48
2021/10/11 00:15:47;;;;;;;0.88;0.82;;;;;;;9.12;89.93;93689.78;5112951;28;20040;-48
2021/10/11 00:18:13;;;;;;;0.95;0.88;;;;;;;9.10;89.51;93686.06;5112893;28;20092;-48
2021/10/11 00:20:39;;;;;;;0.80;0.80;;;;;;;9.10;89.65;93689.56;5112924;28;20067;-47
2021/10/11 00:23:04;;;;;;;1.55;1.00;;;;;;;9.11;89.62;93677.28;5113186;28;20028;-47
2021/10/11 00:25:29;;;;;;;1.90;0.95;;;;;;;9.18;89.71;93680.66;5113097;28;20041;-49
2021/10/11 00:27:55;;;;;;;1.08;0.98;;;;;;;9.27;89.39;93680.22;5112753;28;20028;-49
2021/10/11 00:30:20;;;;;;;1.30;0.93;;;;;;;9.15;89.25;93665.94;5112950;28;20085;-47
2021/10/11 00:32:48;;;;;;;0.75;0.75;;;;;;;9.28;89.00;93676.19;5103977;28;20087;-48
2021/10/11 00:35:14;;;;;;;1.13;1.03;;;;;;;9.24;88.81;93679.28;5092281;28;20084;-48
2021/10/11 00:37:39;;;;;;;0.90;0.80;;;;;;;9.24;89.20;93678.53;5092461;28;20434;-48
2021/10/11 00:40:07;;;;;;;0.75;0.75;;;;;;;9.26;89.11;93676.72;5092432;28;20024;-48
2021/10/11 00:42:33;;;;;;;1.20;0.68;;;;;;;9.27;88.62;93677.47;5091956;28;20039;-48
2021/10/11 00:44:58;;;;;;;2.15;0.73;;;;;;;9.30;88.95;93673.63;5092416;28;20103;-47
2021/10/11 00:47:23;;;;;;;1.23;0.90;;;;;;;9.37;89.15;93676.47;5092199;28;20390;-47
2021/10/11 00:49:49;;;;;;;1.63;0.80;;;;;;;9.40;88.46;93675.38;5091982;28;20028;-50
2021/10/11 00:52:16;;;;;;;0.65;0.65;;;;;;;9.33;88.04;93658.78;5091907;28;20024;-48
2021/10/11 00:54:42;;;;;;;0.65;0.65;;;;;;;9.41;88.11;93668.59;5092132;28;20074;-48
2021/10/11 00:57:07;;;;;;;1.13;1.00;;;;;;;9.39;88.67;93662.91;5090637;28;20416;-48
2021/10/11 00:59:32;;;;;;;0.50;0.50;;;;;;;9.49;87.87;93668.66;5092059;28;20052;-49
2021/10/11 01:01:58;;;;;;;0.70;0.70;;;;;;;9.54;87.79;93667.81;5091681;28;20444;-48
2021/10/11 01:04:23;;;;;;;0.75;0.75;;;;;;;9.53;87.28;93661.56;5091659;28;20081;-47
2021/10/11 01:06:49;;;;;;;0.70;0.70;;;;;;;9.55;87.84;93661.03;5091536;28;20089;-48
2021/10/11 01:09:14;;;;;;;0.85;0.73;;;;;;;9.52;87.75;93654.56;5091810;28;20023;-49
2021/10/11 01:11:40;;;;;;;1.38;0.88;;;;;;;9.51;88.51;93660.59;5091596;28;20118;-48
2021/10/11 01:14:06;;;;;;;0.88;0.88;;;;;;;9.50;87.65;93661.91;5104479;28;20020;-48
2021/10/11 01:16:32;;;;;;;1.00;1.00;;;;;;;9.48;88.32;93658.94;5111693;28;20052;-48
2021/10/11 01:18:57;;;;;;;3.25;1.10;;;;;;;9.55;88.46;93656.25;5111741;28;20030;-48
2021/10/11 01:21:24;;;;;;;1.17;1.10;;;;;;;9.54;88.50;93651.28;5111684;28;20026;-48
2021/10/11 01:23:50;;;;;;;1.08;0.98;;;;;;;9.48;88.83;93628.63;5111943;27;20050;-48
2021/10/11 01:26:15;;;;;;;2.83;1.65;;;;;;;9.54;88.97;93645.75;5111885;28;20031;-49
2021/10/11 01:28:41;;;;;;;10.15;3.35;;;;;;;9.63;88.64;93640.53;5106167;27;20032;-48
2021/10/11 01:31:07;;;;;;;10.75;5.40;;;;;;;9.70;88.31;93639.13;5091443;28;20032;-48
2021/10/11 01:33:32;;;;;;;15.95;9.27;;;;;;;9.73;87.75;93643.53;5091170;28;20063;-48
2021/10/11 01:35:58;;;;;;;21.33;8.63;;;;;;;9.77;87.71;93647.44;5091109;28;20032;-47
2021/10/11 01:38:23;;;;;;;14.25;7.80;;;;;;;9.69;86.87;93629.34;5091008;28;20020;-47
2021/10/11 01:40:49;;;;;;;19.52;10.73;;;;;;;9.73;85.52;93638.03;5091005;28;20110;-48
2021/10/11 01:43:14;;;;;;;23.50;10.13;;;;;;;9.71;84.80;93635.81;5090672;28;20024;-48
2021/10/11 01:45:43;;;;;;;18.38;8.45;;;;;;;9.65;84.11;93626.94;5090372;28;20035;-49
2021/10/11 01:48:08;;;;;;;14.98;8.23;;;;;;;9.62;83.88;93621.75;5089558;28;20103;-47
2021/10/11 01:50:34;;;;;;;15.15;7.60;;;;;;;9.59;83.67;93607.06;5090814;28;20063;-47
2021/10/11 01:52:59;;;;;;;20.17;9.40;;;;;;;9.50;83.84;93615.03;5091092;28;20023;-48
2021/10/11 01:55:25;;;;;;;13.80;7.28;;;;;;;9.40;83.25;93614.75;5090745;28;20027;-48
2021/10/11 01:57:51;;;;;;;12.98;7.25;;;;;;;9.30;82.56;93624.78;5090778;28;20023;-48
2021/10/11 02:00:17;;;;;;;9.88;5.60;;;;;;;9.11;82.20;93624.97;5090789;28;20027;-47
2021/10/11 02:02:42;;;;;;;4.38;2.70;;;;;;;8.84;83.15;93623.53;5090916;28;20073;-49
2021/10/11 02:05:08;;;;;;;2.63;2.00;;;;;;;8.74;85.01;93621.78;5090993;28;20515;-48
2021/10/11 02:07:34;;;;;;;4.78;1.88;;;;;;;8.75;85.70;93628.78;5090787;28;20485;-48
2021/10/11 02:09:59;;;;;;;1.77;1.67;;;;;;;8.65;86.09;93598.19;5090947;28;20469;-48
2021/10/11 02:12:25;;;;;;;3.75;1.70;;;;;;;8.80;85.54;93625.88;5090851;28;20030;-47
2021/10/11 02:14:50;;;;;;;1.60;1.50;;;;;;;8.85;85.87;93633.28;5106117;28;20040;-47
2021/10/11 02:17:16;;;;;;;2.92;2.67;;;;;;;8.88;85.80;93626.72;5110932;28;20028;-49
2021/10/11 02:19:42;;;;;;;3.75;2.50;;;;;;;8.91;84.90;93633.16;5111025;28;20084;-48
2021/10/11 02:22:08;;;;;;;2.60;2.25;;;;;;;8.87;85.02;93625.25;5111078;28;20023;-48
2021/10/11 02:24:34;;;;;;;2.97;2.30;;;;;;;8.86;85.47;93621.00;5108533;28;20016;-49
2021/10/11 02:27:00;;;;;;;3.08;2.78;;;;;;;8.93;84.92;93617.59;5090526;28;20511;-48
2021/10/11 02:29:27;;;;;;;2.75;2.45;;;;;;;9.00;84.84;93621.72;5090633;28;20058;-48
2021/10/11 02:31:53;;;;;;;2.85;2.53;;;;;;;8.97;84.50;93609.00;5090535;28;20072;-48
2021/10/11 02:34:18;;;;;;;2.33;2.05;;;;;;;8.88;82.65;93612.94;5090599;28;20102;-48
2021/10/11 02:36:44;;;;;;;2.50;2.30;;;;;;;8.87;83.44;93610.72;5088929;28;20535;-49
2021/10/11 02:39:09;;;;;;;4.10;3.38;;;;;;;8.88;84.09;93607.44;5090252;28;20027;-49
2021/10/11 02:41:35;;;;;;;3.58;3.13;;;;;;;8.82;83.43;93609.56;5090198;28;20024;-48
2021/10/11 02:44:00;;;;;;;3.15;2.50;;;;;;;8.71;83.77;93600.81;5090483;28;20020;-49
2021/10/11 02:46:26;;;;;;;2.70;2.30;;;;;;;8.57;83.95;93597.34;5090198;28;20032;-48
2021/10/11 02:48:51;;;;;;;3.72;2.88;;;;;;;8.44;85.31;93569.88;5090276;28;20020;-48
2021/10/11 02:51:17;;;;;;;5.70;3.58;;;;;;;8.65;85.12;93583.69;5090227;28;20409;-48
2021/10/11 02:53:42;;;;;;;2.22;2.03;;;;;;;8.57;84.80;93589.09;5090372;28;20020;-48
2021/10/11 02:56:08;;;;;;;3.40;3.10;;;;;;;8.62;85.44;93582.00;5092536;28;20611;-48
2021/10/11 02:58:33;;;;;;;2.53;2.33;;;;;;;8.58;84.63;93587.81;5094390;28;20069;-51
2021/10/11 03:00:59;;;;;;;1.60;1.45;;;;;;;8.48;84.22;93581.28;5094118;28;20462;-49
2021/10/11 03:03:24;;;;;;;2.60;2.38;;;;;;;8.46;84.43;93578.31;5093929;28;20035;-49
2021/10/11 03:05:49;;;;;;;5.47;4.85;;;;;;;8.46;84.63;93575.56;5094292;28;20028;-48
2021/10/11 03:08:15;;;;;;;4.30;3.38;;;;;;;8.40;84.81;93572.91;5094058;28;20016;-49
2021/10/11 03:10:40;;;;;;;13.35;8.20;;;;;;;8.50;85.25;93578.75;5094217;28;20394;-49
2021/10/11 03:13:06;;;;;;;2.60;2.40;;;;;;;8.42;84.84;93579.91;5094994;28;20024;-47
2021/10/11 03:15:31;;;;;;;3.83;1.88;;;;;;;8.36;84.26;93577.25;5114096;28;20437;-48
2021/10/11 03:17:56;;;;;;;1.90;1.80;;;;;;;8.30;84.79;93571.88;5114180;28;20027;-48
2021/10/11 03:20:22;;;;;;;2.97;2.67;;;;;;;8.25;84.37;93569.97;5114059;28;20035;-50
2021/10/11 03:22:47;;;;;;;3.20;2.88;;;;;;;8.20;84.12;93573.56;5095082;28;20028;-47
2021/10/11 03:25:13;;;;;;;5.07;3.30;;;;;;;8.25;85.96;93577.50;5093871;28;20020;-47
2021/10/11 03:27:38;;;;;;;2.97;2.67;;;;;;;8.29;85.54;93573.16;5093654;28;20028;-49
2021/10/11 03:30:04;;;;;;;3.17;2.17;;;;;;;8.29;84.68;93572.44;5093827;28;20027;-48
2021/10/11 03:32:29;;;;;;;2.25;2.05;;;;;;;8.29;85.12;93577.94;5092179;28;20046;-50
2021/10/11 03:34:55;;;;;;;3.55;2.90;;;;;;;8.33;85.27;93572.84;5093244;28;20073;-47
2021/10/11 03:37:20;;;;;;;3.03;2.72;;;;;;;8.37;85.08;93578.75;5093383;28;20078;-48
2021/10/11 03:39:46;;;;;;;2.13;1.83;;;;;;;8.32;84.59;93576.84;5093365;28;20035;-47
2021/10/11 03:42:11;;;;;;;2.30;2.10;;;;;;;8.30;84.78;93574.63;5093596;28;20020;-48
2021/10/11 03:44:37;;;;;;;2.33;2.10;;;;;;;8.24;84.25;93571.25;5093555;28;20420;-48
2021/10/11 03:47:02;;;;;;;5.05;2.90;;;;;;;8.30;84.64;93571.13;5093124;28;20417;-48
2021/10/11 03:49:28;;;;;;;2.25;2.05;;;;;;;8.28;84.26;93566.19;5093487;28;20024;-48
2021/10/11 03:51:53;;;;;;;2.42;1.80;;;;;;;8.35;84.17;93567.53;5093364;28;20031;-50
2021/10/11 03:54:19;;;;;;;1.98;1.60;;;;;;;8.40;84.33;93561.19;5093400;28;20012;-48
2021/10/11 03:56:44;;;;;;;1.88;1.77;;;;;;;8.42;84.15;93564.16;5093256;28;20024;-48
2021/10/11 03:59:11;;;;;;;2.83;2.53;;;;;;;8.45;84.13;93556.81;5093319;28;20012;-48
2021/10/11 04:01:36;;;;;;;3.00;2.17;;;;;;;8.44;84.26;93566.38;5093220;28;20217;-48
2021/10/11 04:04:02;;;;;;;3.17;1.85;;;;;;;8.31;82.87;93567.13;5093151;28;20576;-49
2021/10/11 04:06:28;;;;;;;2.75;2.50;;;;;;;8.30;83.91;93557.38;5092406;28;20737;-48
2021/10/11 04:08:55;;;;;;;2.70;2.50;;;;;;;8.35;84.34;93556.53;5092436;28;20063;-49
2021/10/11 04:13:46;;;;;;;3.50;3.20;;;;;;;8.30;84.12;93551.88;5099602;28;20015;-48
2021/10/11 04:16:12;;;;;;;3.25;2.95;;;;;;;8.33;84.10;93553.59;5112734;28;20035;-49
2021/10/11 04:18:37;;;;;;;4.20;2.65;;;;;;;8.29;84.25;93536.66;5112995;28;20042;-48
2021/10/11 04:21:03;;;;;;;6.05;5.65;;;;;;;8.30;84.48;93544.38;5113125;28;20512;-48
2021/10/11 04:23:30;;;;;;;1.70;1.60;;;;;;;8.23;83.84;93545.00;5113273;28;20047;-49
2021/10/11 04:25:55;;;;;;;4.10;1.75;;;;;;;7.95;84.02;93516.59;5112867;28;20601;-50
2021/10/11 04:28:21;;;;;;;6.60;3.00;;;;;;;8.02;85.01;93546.19;5112770;28;20122;-48
2021/10/11 04:30:47;;;;;;;2.92;2.72;;;;;;;8.10;85.59;93547.03;5112816;27;20035;-48
2021/10/11 04:33:13;;;;;;;3.55;3.25;;;;;;;8.07;85.18;93539.84;5112906;28;20030;-49
2021/10/11 04:35:39;;;;;;;3.72;3.38;;;;;;;8.08;85.47;93538.56;5113062;28;20046;-48
2021/10/11 04:38:05;;;;;;;3.40;3.17;;;;;;;8.04;85.52;93529.88;5112903;28;20055;-48
2021/10/11 04:40:31;;;;;;;2.45;2.25;;;;;;;8.13;85.37;93538.47;5111366;28;20023;-49
2021/10/11 04:42:56;;;;;;;4.45;2.97;;;;;;;8.15;85.03;93546.91;5112840;28;20019;-48
2021/10/11 04:45:28;;;;;;;1.95;1.45;;;;;;;7.93;84.26;93541.84;5112465;28;20386;-48
2021/10/11 04:47:58;;;;;;;5.15;4.63;;;;;;;8.03;86.06;93539.41;5112654;28;20031;-49
2021/10/11 04:50:24;;;;;;;3.60;3.30;;;;;;;8.03;86.62;93547.66;5112636;28;20034;-48
2021/10/11 04:52:49;;;;;;;4.18;3.35;;;;;;;8.04;86.53;93547.13;5112636;28;20015;-47
2021/10/11 04:55:15;;;;;;;2.40;2.20;;;;;;;7.91;85.81;93538.88;5112509;28;20484;-50
2021/10/11 04:57:40;;;;;;;2.33;2.13;;;;;;;7.84;85.54;93545.00;5112546;28;20020;-47
2021/10/11 05:00:06;;;;;;;3.90;2.13;;;;;;;7.60;86.02;93526.00;5112413;28;20412;-49
2021/10/11 05:02:32;;;;;;;8.32;3.90;;;;;;;7.83;87.60;93545.56;5112391;28;20066;-49
2021/10/11 05:04:57;;;;;;;5.07;2.78;;;;;;;7.84;86.77;93539.50;5112089;28;20047;-47
2021/10/11 05:07:22;;;;;;;3.83;2.88;;;;;;;7.83;86.52;93540.06;5111709;28;20023;-50
2021/10/11 05:09:48;;;;;;;4.00;2.90;;;;;;;7.76;87.95;93513.19;5112035;28;20020;-48
2021/10/11 05:12:14;;;;;;;6.70;2.45;;;;;;;8.00;87.52;93535.72;5112201;28;20019;-47
2021/10/11 05:14:39;;;;;;;1.80;1.70;;;;;;;8.04;86.60;93535.38;5097686;28;20020;-47
2021/10/11 05:17:05;;;;;;;7.40;5.32;;;;;;;8.08;86.50;93524.81;5091455;28;20036;-47
2021/10/11 05:19:30;;;;;;;2.85;2.35;;;;;;;8.18;86.04;93534.88;5091372;28;20031;-48
2021/10/11 05:21:56;;;;;;;4.00;3.67;;;;;;;8.23;85.86;93536.75;5091604;28;20020;-49
2021/10/11 05:24:24;;;;;;;2.88;2.60;;;;;;;8.25;86.15;93530.72;5091639;28;20483;-49
2021/10/11 05:26:53;;;;;;;2.65;2.45;;;;;;;8.33;86.11;93523.31;5091222;28;20024;-48
2021/10/11 05:29:19;;;;;;;2.60;2.40;;;;;;;8.18;85.54;93515.63;5091626;28;20032;-48
2021/10/11 05:31:46;;;;;;;5.90;3.85;;;;;;;8.31;86.34;93528.63;5091505;28;20389;-47
2021/10/11 05:34:12;;;;;;;14.30;13.00;;;;;;;8.35;85.82;93532.53;5090239;28;20397;-48
2021/10/11 05:36:38;;;;;;;6.07;3.22;;;;;;;8.27;84.90;93536.47;5090304;28;20020;-48
2021/10/11 05:39:03;;;;;;;4.35;3.67;;;;;;;8.27;84.84;93531.69;5091271;28;20101;-47
2021/10/11 05:41:29;;;;;;;6.15;3.00;;;;;;;8.33;85.57;93540.56;5091409;28;20024;-47
2021/10/11 05:43:54;;;;;;;7.43;3.33;;;;;;;8.31;84.93;93539.63;5090965;28;20027;-48
2021/10/11 05:46:20;;;;;;;3.30;1.80;;;;;;;8.30;84.22;93538.88;5091008;28;20028;-48
2021/10/11 05:48:45;;;;;;;14.85;2.55;;;;;;;8.33;84.92;93528.81;5091170;28;20024;-47
2021/10/11 05:51:10;;;;;;;2.72;2.25;;;;;;;8.33;85.65;93537.09;5091107;28;20412;-47
2021/10/11 05:53:36;;;;;;;11.13;2.15;;;;;;;8.39;85.52;93532.94;5090830;28;20389;-49
2021/10/11 05:56:01;;;;;;;2.72;1.75;;;;;;;8.45;85.30;93534.81;5090763;28;20024;-48
2021/10/11 05:58:27;;;;;;;1.70;1.60;;;;;;;8.51;85.13;93533.44;5090627;28;20074;-48
2021/10/11 06:00:52;;;;;;;1.67;1.58;;;;;;;8.57;85.02;93531.31;5090968;28;20397;-48
2021/10/11 06:03:17;;;;;;;2.00;1.80;;;;;;;8.56;84.50;93529.81;5090640;28;20020;-47
2021/10/11 06:05:43;;;;;;;1.70;1.60;;;;;;;8.49;84.78;93530.47;5090627;28;20016;-48
2021/10/11 06:08:08;;;;;;;1.90;1.80;;;;;;;8.53;85.55;93528.16;5090519;28;20031;-47
2021/10/11 06:10:35;;;;;;;2.80;2.10;;;;;;;8.57;85.70;93531.31;5101112;28;20028;-48
2021/10/11 06:13:01;;;;;;;2.33;1.77;;;;;;;8.51;85.37;93536.19;5110653;28;20027;-48
2021/10/11 06:15:27;;;;;;;3.10;2.28;;;;;;;8.53;85.57;93519.91;5110802;28;20066;-48
2021/10/11 06:17:52;;;;;;;5.38;2.20;;;;;;;8.64;85.88;93527.88;5110851;28;20107;-49
2021/10/11 06:20:18;;;;;;;4.70;2.53;;;;;;;8.65;85.72;93526.63;5111130;28;20027;-48
2021/10/11 06:22:43;;;;;;;3.33;2.70;;;;;;;8.72;85.58;93525.97;5110986;28;20015;-48
2021/10/11 06:25:08;;;;;;;2.80;2.55;;;;;;;8.72;85.42;93517.72;5110807;28;20016;-48
2021/10/11 06:27:34;;;;;;;10.70;6.07;;;;;;;8.83;85.55;93522.22;5110935;28;20028;-48
2021/10/11 06:30:00;;;;;;;4.55;4.13;;;;;;;8.85;84.45;93517.66;5110204;28;20157;-48
2021/10/11 06:32:25;;;;;;;6.18;4.28;;;;;;;8.95;85.04;93521.41;5110871;28;20096;-47
2021/10/11 06:34:51;;;;;;;3.10;2.80;;;;;;;9.00;84.74;93519.81;5110645;28;20520;-48
2021/10/11 06:37:16;;;;;;;5.45;3.65;;;;;;;9.03;84.87;93519.47;5110886;28;20023;-47
2021/10/11 06:39:42;;;;;;;14.80;11.00;;;;;;;9.10;84.19;93523.56;5110918;28;20031;-49
2021/10/11 06:42:07;;;;;;;7.38;4.45;;;;;;;9.14;84.08;93515.72;5110665;28;20028;-48
2021/10/11 06:44:33;;;;;;;7.93;4.65;;;;;;;9.11;83.11;93508.53;5110483;28;20500;-47
2021/10/11 06:46:58;;;;;;;10.35;6.07;;;;;;;9.30;83.09;93522.09;5110274;28;20035;-49
2021/10/11 06:49:24;;;;;;;9.10;6.25;;;;;;;9.40;83.78;93523.81;5110782;28;20015;-48
2021/10/11 06:51:50;;;;;;;11.18;6.28;;;;;;;9.37;83.96;93510.41;5110555;28;20080;-48
2021/10/11 06:54:15;;;;;;;6.63;4.13;;;;;;;9.40;83.80;93507.28;5110495;28;20031;-48
2021/10/11 06:56:41;;;;;;;13.50;7.45;;;;;;;9.59;83.55;93526.38;5110461;28;20031;-48
2021/10/11 06:59:06;;;;;;;24.05;13.88;;;;;;;9.62;83.59;93530.78;5110679;28;20020;-48
2021/10/11 07:01:32;;;;;;;14.68;9.40;;;;;;;9.68;83.37;93523.13;5110749;28;20088;-47
2021/10/11 07:03:57;;;;;;;7.78;5.13;;;;;;;9.75;82.78;93530.69;5110610;28;20023;-49
2021/10/11 07:06:24;;;;;;;9.50;5.05;;;;;;;9.82;83.13;93521.75;5103203;28;20028;-49
2021/10/11 07:08:50;;;;;;;6.30;4.10;;;;;;;9.88;82.95;93523.06;5090244;28;20413;-48
2021/10/11 07:11:15;;;;;;;3.13;2.72;;;;;;;9.77;82.45;93498.56;5089892;28;20062;-47
2021/10/11 07:13:41;;;;;;;3.38;2.30;;;;;;;9.94;82.34;93514.63;5096129;28;20019;-48
2021/10/11 07:16:06;;;;;;;3.15;2.60;;;;;;;9.96;82.40;93516.88;5110108;28;20048;-48
2021/10/11 07:18:35;;;;;;;2.30;2.08;;;;;;;10.00;82.44;93517.25;5110579;28;20027;-48
2021/10/11 07:21:06;;;;;;;5.32;4.15;;;;;;;10.05;82.34;93503.28;5110292;28;20502;-48
2021/10/11 07:23:33;;;;;;;8.02;4.53;;;;;;;10.16;81.51;93514.06;5110654;28;20062;-49
2021/10/11 07:26:00;;;;;;;11.85;5.30;;;;;;;10.19;81.60;93512.97;5110539;28;20035;-48
2021/10/11 07:28:26;;;;;;;15.27;6.53;;;;;;;10.24;81.30;93516.88;5110069;28;20076;-47
2021/10/11 07:30:52;;;;;;;35.55;15.75;;;;;;;10.33;81.22;93513.59;5110501;28;20020;-47
2021/10/11 07:33:18;;;;;;;36.90;17.08;;;;;;;10.46;81.03;93505.91;5110148;28;20028;-47
2021/10/11 07:35:44;;;;;;;21.23;11.63;;;;;;;10.62;79.82;93496.41;5110158;28;20040;-47
2021/10/11 07:38:09;;;;;;;18.08;8.23;;;;;;;10.83;78.61;93501.78;5110012;28;20016;-48
2021/10/11 07:40:35;;;;;;;13.48;7.00;;;;;;;11.00;78.83;93501.28;5110038;28;20024;-47
2021/10/11 07:43:00;;;;;;;10.57;7.10;;;;;;;11.14;78.65;93495.03;5111881;28;20107;-48
2021/10/11 07:45:26;;;;;;;12.60;7.70;;;;;;;11.13;77.16;93499.06;5113873;28;20024;-48
2021/10/11 07:47:51;;;;;;;13.10;8.13;;;;;;;11.24;78.45;93495.22;5113798;28;20104;-47
2021/10/11 07:50:17;;;;;;;11.68;8.25;;;;;;;11.25;77.90;93494.66;5113581;28;20490;-48
2021/10/11 07:52:42;;;;;;;7.22;5.78;;;;;;;11.29;78.08;93508.84;5113812;28;20098;-48
2021/10/11 07:55:08;;;;;;;2.10;1.90;;;;;;;11.15;78.23;93507.53;5113753;28;20408;-48
2021/10/11 07:57:33;;;;;;;1.17;1.08;;;;;;;11.10;79.14;93507.72;5113363;28;20024;-48
2021/10/11 08:00:00;;;;;;;1.33;1.20;;;;;;;10.88;79.19;93500.13;5113421;28;20084;-48
2021/10/11 08:02:25;;;;;;;4.30;1.80;;;;;;;10.94;80.29;93509.72;5108081;28;20182;-48
2021/10/11 08:04:51;;;;;;;1.50;1.30;;;;;;;10.92;79.71;93511.56;5093179;28;20028;-48
2021/10/11 08:07:17;;;;;;;3.72;2.55;;;;;;;10.97;79.08;93510.66;5093067;28;20443;-48
2021/10/11 08:09:42;;;;;;;2.00;1.88;;;;;;;10.98;78.99;93512.13;5092794;28;20024;-48
2021/10/11 08:25:27;;;;;;;4.22;3.63;;;;;;;11.71;76.55;93497.44;5128408;27;20622;-48
2021/10/11 08:27:53;;;;;;;7.80;4.53;;;;;;;11.61;76.72;93496.50;5128783;27;20024;-49
2021/10/11 08:30:18;;;;;;;7.22;5.50;;;;;;;11.50;77.87;93491.34;5128649;27;20023;-49
2021/10/11 08:32:44;;;;;;;7.85;6.00;;;;;;;11.48;78.14;93488.41;5107975;27;20027;-47
2021/10/11 08:35:09;;;;;;;3.90;3.50;;;;;;;11.42;78.72;93491.34;5107799;28;20046;-49
2021/10/11 08:37:35;;;;;;;4.18;3.30;;;;;;;11.35;77.87;93483.78;5108021;28;20035;-49
2021/10/11 08:40:00;;;;;;;4.70;3.25;;;;;;;11.28;78.21;93482.50;5108231;28;20034;-48
2021/10/11 08:42:26;;;;;;;3.42;1.88;;;;;;;11.34;78.48;93477.53;5107914;28;20100;-48
2021/10/11 08:44:51;;;;;;;2.60;2.40;;;;;;;11.39;78.76;93462.06;5108054;28;20028;-48
2021/10/11 08:47:17;;;;;;;1.83;1.73;;;;;;;11.41;78.55;93470.53;5110833;28;20095;-48
2021/10/11 08:49:47;;;;;;;2.75;2.40;;;;;;;11.51;79.78;93471.44;5109027;27;20385;-47
2021/10/11 08:52:14;;;;;;;2.30;1.80;;;;;;;11.63;78.72;93466.28;5107626;28;20023;-48
2021/10/11 08:54:43;;;;;;;19.73;3.45;;;;;;;11.75;78.36;93464.59;5107775;28;20028;-50
2021/10/11 08:57:23;;;;;;;3.25;1.98;;;;;;;11.88;77.83;93470.69;5107450;28;20035;-48
2021/10/11 08:59:49;;;;;;;14.40;1.98;;;;;;;11.95;77.38;93469.19;5107602;28;20451;-49
2021/10/11 09:02:16;;;;;;;1.98;1.77;;;;;;;12.05;78.11;93459.75;5107633;28;20404;-49
2021/10/11 09:04:46;;;;;;;3.63;2.35;;;;;;;12.13;77.91;93468.00;5107516;28;20031;-50
2021/10/11 09:07:12;;;;;;;11.75;4.10;;;;;;;12.10;77.61;93464.34;5107212;28;20027;-48
2021/10/11 09:09:45;;;;;;;16.30;8.13;;;;;;;12.12;78.13;93461.75;5107475;28;20089;-48
2021/10/11 09:12:16;;;;;;;10.68;7.78;;;;;;;12.14;78.17;93464.69;5107206;28;20020;-48
2021/10/11 09:14:45;;;;;;;2.20;2.00;;;;;;;12.17;77.56;93465.63;5107297;28;20157;-50
2021/10/11 09:17:13;;;;;;;5.05;3.28;;;;;;;12.15;77.93;93463.41;5106961;28;20071;-49
2021/10/11 09:19:46;;;;;;;3.38;2.88;;;;;;;12.08;76.70;93460.66;5107181;28;20032;-48
2021/10/11 09:22:11;;;;;;;3.47;3.17;;;;;;;12.06;77.41;93466.75;5116263;28;20020;-47
2021/10/11 09:24:37;;;;;;;2.20;1.95;;;;;;;11.94;76.52;93459.41;5123768;27;20527;-48
2021/10/11 09:27:02;;;;;;;4.03;3.40;;;;;;;11.93;77.31;93457.94;5114007;28;20400;-48
2021/10/11 09:29:36;;;;;;;4.38;2.90;;;;;;;11.85;77.20;93465.50;5113511;28;20031;-48
2021/10/11 09:32:05;;;;;;;4.82;3.30;;;;;;;11.76;77.61;93466.81;5113824;27;20031;-49
2021/10/11 09:34:32;;;;;;;4.53;3.70;;;;;;;11.64;77.26;93459.44;5113721;28;20019;-47
2021/10/11 09:37:00;;;;;;;3.72;2.50;;;;;;;11.54;77.83;93469.59;5113805;28;20175;-49
2021/10/11 09:39:27;;;;;;;6.25;3.70;;;;;;;11.46;78.11;93457.81;5113419;28;20036;-48
2021/10/11 09:41:54;;;;;;;5.78;3.78;;;;;;;11.37;78.44;93459.09;5113577;28;20454;-48
2021/10/11 09:44:21;;;;;;;4.40;3.50;;;;;;;11.32;78.93;93455.25;5113526;28;20080;-49
2021/10/11 09:46:46;;;;;;;8.77;5.35;;;;;;;11.25;78.46;93464.25;5113571;28;20076;-48
2021/10/11 09:49:13;;;;;;;7.22;4.85;;;;;;;11.20;77.66;93453.38;5113511;28;20483;-48
2021/10/11 09:51:39;;;;;;;19.45;8.32;;;;;;;11.08;78.60;93457.81;5113219;28;20114;-49
2021/10/11 09:54:04;;;;;;;14.23;6.65;;;;;;;11.07;79.70;93459.09;5111806;28;20484;-48
2021/10/11 09:56:31;;;;;;;10.30;4.85;;;;;;;11.01;80.05;93461.28;5113018;28;20027;-49
2021/10/11 09:58:57;;;;;;;9.77;4.43;;;;;;;10.97;79.78;93456.16;5113077;28;20083;-48
2021/10/11 10:01:23;;;;;;;11.00;6.70;;;;;;;10.86;79.78;93434.41;5112802;28;20023;-49
2021/10/11 10:03:50;;;;;;;9.68;5.50;;;;;;;10.98;79.36;93451.38;5113226;28;20030;-51
2021/10/11 10:06:16;;;;;;;7.32;4.53;;;;;;;10.88;79.78;93444.88;5112994;28;20522;-48
2021/10/11 10:08:43;;;;;;;6.55;3.60;;;;;;;10.90;79.98;93442.31;5113138;28;20047;-48
2021/10/11 10:11:09;;;;;;;6.25;4.18;;;;;;;10.87;79.00;93435.13;5111591;28;20019;-49
2021/10/11 10:13:46;;;;;;;5.20;3.33;;;;;;;10.88;80.47;93434.59;5112591;28;20031;-48
2021/10/11 10:16:13;;;;;;;10.98;6.70;;;;;;;10.81;80.52;93431.81;5112048;28;20035;-49
2021/10/11 10:18:40;;;;;;;7.05;5.00;;;;;;;10.80;81.04;93430.34;5112859;28;20028;-49
2021/10/11 10:21:06;;;;;;;2.47;2.05;;;;;;;10.60;80.47;93404.34;5112835;28;20081;-47
2021/10/11 10:23:34;;;;;;;4.47;2.65;;;;;;;10.63;81.01;93425.34;5095812;28;20040;-49
2021/10/11 10:26:05;;;;;;;2.80;2.03;;;;;;;10.71;81.27;93415.06;5092176;28;20032;-48
2021/10/11 10:28:48;;;;;;;2.85;1.85;;;;;;;10.79;81.18;93415.78;5092117;28;20488;-47
2021/10/11 10:31:35;;;;;;;2.72;2.00;;;;;;;10.72;81.18;93415.78;5092343;28;20497;-47
2021/10/11 10:34:01;;;;;;;6.97;1.83;;;;;;;10.67;81.88;93403.63;5091963;28;20028;-50
2021/10/11 10:36:40;;;;;;;5.70;4.15;;;;;;;10.73;81.93;93411.72;5091279;28;20042;-49
2021/10/11 10:39:07;;;;;;;4.57;3.25;;;;;;;10.78;81.75;93411.56;5092025;28;20485;-48
2021/10/11 10:41:34;;;;;;;4.38;2.72;;;;;;;10.76;81.55;93410.63;5090530;28;20508;-50
2021/10/11 10:44:10;;;;;;;1.77;1.55;;;;;;;10.73;81.49;93406.94;5091728;28;20099;-48
2021/10/11 10:46:35;;;;;;;6.95;4.15;;;;;;;10.69;81.33;93401.06;5091701;28;20039;-48
2021/10/11 10:49:00;;;;;;;7.47;4.60;;;;;;;10.71;81.59;93408.78;5091895;28;20064;-49
2021/10/11 10:51:26;;;;;;;6.15;3.90;;;;;;;10.67;82.32;93403.63;5091749;28;20020;-48
2021/10/11 10:53:57;;;;;;;2.25;1.80;;;;;;;10.64;81.75;93399.94;5091428;28;20040;-48
2021/10/11 10:56:24;;;;;;;2.03;1.75;;;;;;;10.64;81.57;93402.72;5091459;28;20028;-48
2021/10/11 10:58:59;;;;;;;3.35;2.25;;;;;;;10.70;81.56;93407.31;5091519;28;20023;-48
2021/10/11 11:01:25;;;;;;;3.05;2.08;;;;;;;10.63;81.16;93398.47;5091453;28;20492;-49
2021/10/11 11:03:51;;;;;;;8.95;5.18;;;;;;;10.60;81.32;93396.06;5091387;28;20048;-49
2021/10/11 11:06:30;;;;;;;17.08;9.93;;;;;;;10.51;81.20;93391.81;5091381;28;20116;-48
2021/10/11 11:08:57;;;;;;;5.43;3.60;;;;;;;10.58;80.87;93390.38;5091348;28;20039;-48
2021/10/11 11:11:23;;;;;;;7.55;3.95;;;;;;;10.50;80.20;93395.88;5091488;28;20032;-48
2021/10/11 11:13:52;;;;;;;2.47;1.90;;;;;;;10.42;80.09;93400.63;5091118;28;20034;-48
2021/10/11 11:16:27;;;;;;;3.75;2.50;;;;;;;10.22;80.15;93373.19;5091836;28;20405;-49
2021/10/11 11:18:54;;;;;;;2.92;2.10;;;;;;;10.36;80.54;93388.28;5091351;28;20024;-48
2021/10/11 11:21:20;;;;;;;2.00;1.80;;;;;;;10.28;81.30;93393.81;5093304;28;20028;-50
2021/10/11 11:23:45;;;;;;;2.25;1.98;;;;;;;10.25;81.58;93392.13;5092822;28;20063;-48
2021/10/11 11:26:11;;;;;;;1.80;1.70;;;;;;;10.07;81.06;93384.16;5089231;28;20028;-48
2021/10/11 11:28:37;;;;;;;5.80;4.45;;;;;;;9.93;81.71;93355.97;5090409;28;20032;-51
2021/10/11 11:31:08;;;;;;;3.25;2.85;;;;;;;10.11;81.99;93371.50;5090851;28;20558;-49
2021/10/11 11:33:34;;;;;;;11.98;5.85;;;;;;;10.09;80.47;93390.56;5090703;28;20020;-48
2021/10/11 11:36:04;;;;;;;9.77;4.18;;;;;;;9.99;80.86;93389.63;5091150;28;20632;-49
2021/10/11 11:38:33;;;;;;;10.18;4.70;;;;;;;9.91;82.05;93380.59;5090805;28;20541;-48
2021/10/11 11:41:01;;;;;;;10.02;5.13;;;;;;;10.00;82.17;93391.13;5090639;28;20744;-48
2021/10/11 11:43:29;;;;;;;11.02;6.03;;;;;;;10.09;82.32;93389.88;5090974;28;20028;-48
2021/10/11 11:45:56;;;;;;;8.25;4.68;;;;;;;10.10;82.17;93392.06;5091000;28;20032;-47
2021/10/11 11:48:50;;;;;;;5.32;3.42;;;;;;;10.04;80.97;93394.25;5090696;28;20059;-48